sensor_id;sensor_type;location;lat;lon;timestamp;temperature;humidity
21001;DHT22;10658;50.920;12.238;2024-01-15T00:02:35;0.80;99.90
21001;DHT22;10658;50.920;12.238;2024-01-15T00:06:36;0.90;99.90
21001;DHT22;10658;50.920;12.238;2024-01-15T00:10:36;0.90;99.90
21001;DHT22;10658;50.920;12.238;2024-01-15T00:14:37;0.80;99.90
21001;DHT22;10658;50.920;12.238;2024-01-15T00:18:38;0.80;99.90
21001;DHT22;10658;50.920;12.238;2024-01-15T00:22:39;0.80;99.90
21001;DHT22;10658;50.920;12.238;2024-01-15T00:26:40;0.80;99.90
21001;DHT22;10658;50.920;12.238;2024-01-15T00:30:41;0.80;99.90
21001;DHT22;10658;50.920;12.238;2024-01-15T00:34:42;0.80;99.90
21001;DHT22;10658;50.920;12.238;2024-01-15T00:38:44;0.80;99.90
21001;DHT22;10658;50.920;12.238;2024-01-15T00:42:44;0.80;99.90
21001;DHT22;10658;50.920;12.238;2024-01-15T00:46:46;0.80;99.90
21001;DHT22;10658;50.920;12.238;2024-01-15T00:50:47;0.80;99.90
21001;DHT22;10658;50.920;12.238;2024-01-15T00:54:47;0.80;99.90
21001;DHT22;10658;50.920;12.238;2024-01-15T00:58:48;0.80;99.90
21001;DHT22;10658;50.920;12.238;2024-01-15T01:02:49;0.80;99.90
21001;DHT22;10658;50.920;12.238;2024-01-15T01:06:50;0.80;99.90
21001;DHT22;10658;50.920;12.238;2024-01-15T01:10:50;0.80;99.90
21001;DHT22;10658;50.920;12.238;2024-01-15T01:14:51;0.80;99.90
21001;DHT22;10658;50.920;12.238;2024-01-15T01:18:54;0.70;99.90
21001;DHT22;10658;50.920;12.238;2024-01-15T01:22:55;0.70;99.90
21001;DHT22;10658;50.920;12.238;2024-01-15T01:26:56;0.70;99.90
21001;DHT22;10658;50.920;12.238;2024-01-15T01:30:57;0.60;99.90
21001;DHT22;10658;50.920;12.238;2024-01-15T01:34:58;0.70;99.90
21001;DHT22;10658;50.920;12.238;2024-01-15T01:38:58;0.60;99.90
21001;DHT22;10658;50.920;12.238;2024-01-15T01:42:59;0.70;99.90
21001;DHT22;10658;50.920;12.238;2024-01-15T01:47:00;0.70;99.90
21001;DHT22;10658;50.920;12.238;2024-01-15T01:51:02;0.70;99.90
21001;DHT22;10658;50.920;12.238;2024-01-15T01:55:06;0.60;99.90
21001;DHT22;10658;50.920;12.238;2024-01-15T01:59:11;0.60;99.90
21001;DHT22;10658;50.920;12.238;2024-01-15T02:03:12;0.60;99.90
21001;DHT22;10658;50.920;12.238;2024-01-15T02:07:13;0.60;99.90
21001;DHT22;10658;50.920;12.238;2024-01-15T02:11:14;0.60;99.90
21001;DHT22;10658;50.920;12.238;2024-01-15T02:15:14;0.60;99.90
21001;DHT22;10658;50.920;12.238;2024-01-15T02:19:18;0.60;99.90
21001;DHT22;10658;50.920;12.238;2024-01-15T02:23:19;0.60;99.90
21001;DHT22;10658;50.920;12.238;2024-01-15T02:27:20;0.60;99.90
21001;DHT22;10658;50.920;12.238;2024-01-15T02:31:21;0.60;99.90
21001;DHT22;10658;50.920;12.238;2024-01-15T02:35:22;0.70;99.90
21001;DHT22;10658;50.920;12.238;2024-01-15T02:39:22;0.60;99.90
21001;DHT22;10658;50.920;12.238;2024-01-15T02:43:23;0.60;99.90
21001;DHT22;10658;50.920;12.238;2024-01-15T02:47:24;0.40;99.90
21001;DHT22;10658;50.920;12.238;2024-01-15T02:51:24;0.30;99.90
21001;DHT22;10658;50.920;12.238;2024-01-15T02:55:25;0.10;99.90
21001;DHT22;10658;50.920;12.238;2024-01-15T02:59:26;0.10;99.90
21001;DHT22;10658;50.920;12.238;2024-01-15T03:03:27;0.00;99.90
21001;DHT22;10658;50.920;12.238;2024-01-15T03:07:28;0.00;99.90
21001;DHT22;10658;50.920;12.238;2024-01-15T03:11:29;0.10;99.90
21001;DHT22;10658;50.920;12.238;2024-01-15T03:15:30;0.10;99.90
21001;DHT22;10658;50.920;12.238;2024-01-15T03:19:30;0.10;99.90
21001;DHT22;10658;50.920;12.238;2024-01-15T03:23:31;0.10;99.90
21001;DHT22;10658;50.920;12.238;2024-01-15T03:27:32;0.10;99.90
21001;DHT22;10658;50.920;12.238;2024-01-15T03:31:33;0.00;99.90
21001;DHT22;10658;50.920;12.238;2024-01-15T03:35:34;0.10;99.90
21001;DHT22;10658;50.920;12.238;2024-01-15T03:39:35;0.20;99.90
21001;DHT22;10658;50.920;12.238;2024-01-15T03:43:35;0.10;99.90
21001;DHT22;10658;50.920;12.238;2024-01-15T03:47:36;0.10;99.90
21001;DHT22;10658;50.920;12.238;2024-01-15T03:51:37;0.10;99.90
21001;DHT22;10658;50.920;12.238;2024-01-15T03:55:38;0.10;99.90
21001;DHT22;10658;50.920;12.238;2024-01-15T03:59:40;0.10;99.90
21001;DHT22;10658;50.920;12.238;2024-01-15T04:03:42;0.10;99.90
21001;DHT22;10658;50.920;12.238;2024-01-15T04:07:43;0.10;99.90
21001;DHT22;10658;50.920;12.238;2024-01-15T04:11:44;0.10;99.90
21001;DHT22;10658;50.920;12.238;2024-01-15T04:15:44;0.10;99.90
21001;DHT22;10658;50.920;12.238;2024-01-15T04:19:45;0.10;99.90
21001;DHT22;10658;50.920;12.238;2024-01-15T04:23:46;0.20;99.90
21001;DHT22;10658;50.920;12.238;2024-01-15T04:27:47;0.10;99.90
21001;DHT22;10658;50.920;12.238;2024-01-15T04:31:48;0.10;99.90
21001;DHT22;10658;50.920;12.238;2024-01-15T04:35:49;0.10;99.90
21001;DHT22;10658;50.920;12.238;2024-01-15T04:39:49;0.10;99.90
21001;DHT22;10658;50.920;12.238;2024-01-15T04:43:53;0.10;99.90
21001;DHT22;10658;50.920;12.238;2024-01-15T04:47:54;0.10;99.90
21001;DHT22;10658;50.920;12.238;2024-01-15T04:51:57;0.10;99.90
21001;DHT22;10658;50.920;12.238;2024-01-15T04:55:58;0.10;99.90
21001;DHT22;10658;50.920;12.238;2024-01-15T04:59:59;0.20;99.90
21001;DHT22;10658;50.920;12.238;2024-01-15T05:04:00;0.00;99.90
21001;DHT22;10658;50.920;12.238;2024-01-15T05:08:01;0.20;99.90
21001;DHT22;10658;50.920;12.238;2024-01-15T05:12:02;0.20;99.90
21001;DHT22;10658;50.920;12.238;2024-01-15T05:16:03;0.30;99.90
21001;DHT22;10658;50.920;12.238;2024-01-15T05:20:04;0.30;99.90
21001;DHT22;10658;50.920;12.238;2024-01-15T05:24:05;0.30;99.90
21001;DHT22;10658;50.920;12.238;2024-01-15T05:28:06;0.30;99.90
21001;DHT22;10658;50.920;12.238;2024-01-15T05:32:06;0.20;99.90
21001;DHT22;10658;50.920;12.238;2024-01-15T05:36:07;0.10;99.90
21001;DHT22;10658;50.920;12.238;2024-01-15T05:40:08;0.10;99.90
21001;DHT22;10658;50.920;12.238;2024-01-15T05:44:09;0.00;99.90
21001;DHT22;10658;50.920;12.238;2024-01-15T05:48:11;0.00;99.90
21001;DHT22;10658;50.920;12.238;2024-01-15T05:52:11;-0.10;99.90
21001;DHT22;10658;50.920;12.238;2024-01-15T05:56:12;-0.20;99.90
21001;DHT22;10658;50.920;12.238;2024-01-15T06:00:13;-0.20;99.90
21001;DHT22;10658;50.920;12.238;2024-01-15T06:04:14;-0.10;99.90
21001;DHT22;10658;50.920;12.238;2024-01-15T06:08:15;-0.10;99.90
21001;DHT22;10658;50.920;12.238;2024-01-15T06:12:16;-0.10;99.90
21001;DHT22;10658;50.920;12.238;2024-01-15T06:16:17;-0.10;99.90
21001;DHT22;10658;50.920;12.238;2024-01-15T06:20:20;-0.10;99.90
21001;DHT22;10658;50.920;12.238;2024-01-15T06:24:21;0.00;99.90
21001;DHT22;10658;50.920;12.238;2024-01-15T06:28:22;0.00;99.90
21001;DHT22;10658;50.920;12.238;2024-01-15T06:32:23;-0.10;99.90
21001;DHT22;10658;50.920;12.238;2024-01-15T06:36:24;0.00;99.90
21001;DHT22;10658;50.920;12.238;2024-01-15T06:40:24;-0.10;99.90
21001;DHT22;10658;50.920;12.238;2024-01-15T06:44:25;-0.10;99.90
21001;DHT22;10658;50.920;12.238;2024-01-15T06:48:26;-0.10;99.90
21001;DHT22;10658;50.920;12.238;2024-01-15T06:52:26;-0.20;99.90
21001;DHT22;10658;50.920;12.238;2024-01-15T06:56:27;-0.30;99.90
21001;DHT22;10658;50.920;12.238;2024-01-15T07:00:28;-0.30;99.90
21001;DHT22;10658;50.920;12.238;2024-01-15T07:04:29;-0.30;99.90
21001;DHT22;10658;50.920;12.238;2024-01-15T07:08:30;-0.30;99.90
21001;DHT22;10658;50.920;12.238;2024-01-15T07:12:30;-0.30;99.90
21001;DHT22;10658;50.920;12.238;2024-01-15T07:16:31;-0.40;99.90
21001;DHT22;10658;50.920;12.238;2024-01-15T07:20:32;-0.40;99.90
21001;DHT22;10658;50.920;12.238;2024-01-15T07:24:32;-0.30;99.90
21001;DHT22;10658;50.920;12.238;2024-01-15T07:28:36;-0.20;99.90
21001;DHT22;10658;50.920;12.238;2024-01-15T07:32:37;-0.20;99.90
21001;DHT22;10658;50.920;12.238;2024-01-15T07:36:37;-0.10;99.90
21001;DHT22;10658;50.920;12.238;2024-01-15T07:40:38;-0.10;99.90
21001;DHT22;10658;50.920;12.238;2024-01-15T07:44:39;-0.10;99.90
21001;DHT22;10658;50.920;12.238;2024-01-15T07:48:40;0.00;99.90
21001;DHT22;10658;50.920;12.238;2024-01-15T07:52:42;0.00;99.90
21001;DHT22;10658;50.920;12.238;2024-01-15T07:56:56;0.10;99.90
21001;DHT22;10658;50.920;12.238;2024-01-15T08:00:57;0.10;99.90
21001;DHT22;10658;50.920;12.238;2024-01-15T08:04:58;0.10;99.90
21001;DHT22;10658;50.920;12.238;2024-01-15T08:08:59;0.10;99.90
21001;DHT22;10658;50.920;12.238;2024-01-15T08:13:00;0.20;99.90
21001;DHT22;10658;50.920;12.238;2024-01-15T08:17:01;0.20;99.90
21001;DHT22;10658;50.920;12.238;2024-01-15T08:21:02;0.20;99.90
21001;DHT22;10658;50.920;12.238;2024-01-15T08:25:03;0.20;99.90
21001;DHT22;10658;50.920;12.238;2024-01-15T08:29:04;0.30;99.90
21001;DHT22;10658;50.920;12.238;2024-01-15T08:33:06;0.30;99.90
21001;DHT22;10658;50.920;12.238;2024-01-15T08:37:07;0.30;99.90
21001;DHT22;10658;50.920;12.238;2024-01-15T08:41:10;0.30;99.90
21001;DHT22;10658;50.920;12.238;2024-01-15T08:45:11;0.30;99.90
21001;DHT22;10658;50.920;12.238;2024-01-15T08:49:12;0.40;99.90
21001;DHT22;10658;50.920;12.238;2024-01-15T08:53:14;0.40;99.90
21001;DHT22;10658;50.920;12.238;2024-01-15T08:57:15;0.40;99.90
21001;DHT22;10658;50.920;12.238;2024-01-15T09:01:15;0.40;99.90
21001;DHT22;10658;50.920;12.238;2024-01-15T09:05:17;0.50;99.90
21001;DHT22;10658;50.920;12.238;2024-01-15T09:09:17;0.60;99.90
21001;DHT22;10658;50.920;12.238;2024-01-15T09:13:18;0.60;99.90
21001;DHT22;10658;50.920;12.238;2024-01-15T09:17:20;0.60;99.90
21001;DHT22;10658;50.920;12.238;2024-01-15T09:21:22;0.70;99.90
21001;DHT22;10658;50.920;12.238;2024-01-15T09:25:23;0.70;99.90
21001;DHT22;10658;50.920;12.238;2024-01-15T09:29:24;0.80;99.90
21001;DHT22;10658;50.920;12.238;2024-01-15T09:33:24;0.80;99.90
21001;DHT22;10658;50.920;12.238;2024-01-15T09:37:25;0.90;99.90
21001;DHT22;10658;50.920;12.238;2024-01-15T09:41:26;0.90;99.90
21001;DHT22;10658;50.920;12.238;2024-01-15T09:45:27;1.00;99.90
21001;DHT22;10658;50.920;12.238;2024-01-15T09:49:28;1.00;99.90
21001;DHT22;10658;50.920;12.238;2024-01-15T09:53:30;1.10;99.90
21001;DHT22;10658;50.920;12.238;2024-01-15T09:57:31;1.10;99.90
21001;DHT22;10658;50.920;12.238;2024-01-15T10:01:34;1.00;99.90
21001;DHT22;10658;50.920;12.238;2024-01-15T10:05:37;1.10;99.90
21001;DHT22;10658;50.920;12.238;2024-01-15T10:09:39;1.20;99.90
21001;DHT22;10658;50.920;12.238;2024-01-15T10:13:39;1.30;99.90
21001;DHT22;10658;50.920;12.238;2024-01-15T10:17:42;1.20;99.90
21001;DHT22;10658;50.920;12.238;2024-01-15T10:21:42;1.20;99.90
21001;DHT22;10658;50.920;12.238;2024-01-15T10:25:43;1.10;99.90
21001;DHT22;10658;50.920;12.238;2024-01-15T10:29:44;1.30;99.90
21001;DHT22;10658;50.920;12.238;2024-01-15T10:33:45;1.50;99.90
21001;DHT22;10658;50.920;12.238;2024-01-15T10:37:47;1.70;99.90
21001;DHT22;10658;50.920;12.238;2024-01-15T10:41:50;1.90;99.90
21001;DHT22;10658;50.920;12.238;2024-01-15T10:45:53;1.90;99.90
21001;DHT22;10658;50.920;12.238;2024-01-15T10:49:56;1.90;99.90
21001;DHT22;10658;50.920;12.238;2024-01-15T10:53:57;2.00;99.90
21001;DHT22;10658;50.920;12.238;2024-01-15T10:58:00;2.10;99.90
21001;DHT22;10658;50.920;12.238;2024-01-15T11:02:02;2.10;99.90
21001;DHT22;10658;50.920;12.238;2024-01-15T11:06:16;2.10;99.90
21001;DHT22;10658;50.920;12.238;2024-01-15T11:14:47;2.00;99.90
21001;DHT22;10658;50.920;12.238;2024-01-15T11:22:58;2.10;99.90
21001;DHT22;10658;50.920;12.238;2024-01-15T11:27:00;2.30;99.90
21001;DHT22;10658;50.920;12.238;2024-01-15T11:31:03;2.30;99.90
21001;DHT22;10658;50.920;12.238;2024-01-15T11:35:05;2.30;99.90
21001;DHT22;10658;50.920;12.238;2024-01-15T11:43:33;2.20;99.90
21001;DHT22;10658;50.920;12.238;2024-01-15T11:51:55;2.00;99.90
21001;DHT22;10658;50.920;12.238;2024-01-15T11:55:59;2.00;99.90
21001;DHT22;10658;50.920;12.238;2024-01-15T12:00:04;2.00;99.90
21001;DHT22;10658;50.920;12.238;2024-01-15T12:04:14;2.10;99.90
21001;DHT22;10658;50.920;12.238;2024-01-15T12:08:23;2.00;99.90
21001;DHT22;10658;50.920;12.238;2024-01-15T12:16:47;2.00;99.90
21001;DHT22;10658;50.920;12.238;2024-01-15T12:20:48;2.10;99.90
21001;DHT22;10658;50.920;12.238;2024-01-15T12:24:49;2.10;99.90
21001;DHT22;10658;50.920;12.238;2024-01-15T12:28:50;2.20;99.90
21001;DHT22;10658;50.920;12.238;2024-01-15T12:32:51;2.40;99.90
21001;DHT22;10658;50.920;12.238;2024-01-15T12:36:52;2.40;99.90
21001;DHT22;10658;50.920;12.238;2024-01-15T12:40:53;2.50;99.90
21001;DHT22;10658;50.920;12.238;2024-01-15T12:44:56;2.50;99.90
21001;DHT22;10658;50.920;12.238;2024-01-15T12:48:57;2.40;99.90
21001;DHT22;10658;50.920;12.238;2024-01-15T12:52:59;2.30;99.90
21001;DHT22;10658;50.920;12.238;2024-01-15T12:57:02;2.20;99.90
21001;DHT22;10658;50.920;12.238;2024-01-15T13:01:03;2.30;99.90
21001;DHT22;10658;50.920;12.238;2024-01-15T13:05:06;2.30;99.90
21001;DHT22;10658;50.920;12.238;2024-01-15T13:09:07;2.30;99.90
21001;DHT22;10658;50.920;12.238;2024-01-15T13:13:11;2.40;99.90
21001;DHT22;10658;50.920;12.238;2024-01-15T13:17:12;2.40;99.90
21001;DHT22;10658;50.920;12.238;2024-01-15T13:21:15;2.40;99.90
21001;DHT22;10658;50.920;12.238;2024-01-15T13:25:18;2.40;99.90
21001;DHT22;10658;50.920;12.238;2024-01-15T13:29:19;2.40;99.90
21001;DHT22;10658;50.920;12.238;2024-01-15T13:33:20;2.30;99.90
21001;DHT22;10658;50.920;12.238;2024-01-15T13:37:20;2.20;99.90
21001;DHT22;10658;50.920;12.238;2024-01-15T13:41:21;2.20;99.90
21001;DHT22;10658;50.920;12.238;2024-01-15T13:45:25;2.10;99.90
21001;DHT22;10658;50.920;12.238;2024-01-15T13:49:26;1.90;99.90
21001;DHT22;10658;50.920;12.238;2024-01-15T13:53:27;1.80;99.90
21001;DHT22;10658;50.920;12.238;2024-01-15T13:57:28;1.70;99.90
21001;DHT22;10658;50.920;12.238;2024-01-15T14:01:28;1.70;99.90
21001;DHT22;10658;50.920;12.238;2024-01-15T14:05:29;1.60;99.90
21001;DHT22;10658;50.920;12.238;2024-01-15T14:09:30;1.60;99.90
21001;DHT22;10658;50.920;12.238;2024-01-15T14:13:32;1.60;99.90
21001;DHT22;10658;50.920;12.238;2024-01-15T14:17:33;1.60;99.90
21001;DHT22;10658;50.920;12.238;2024-01-15T14:21:34;1.60;99.90
21001;DHT22;10658;50.920;12.238;2024-01-15T14:25:36;1.60;99.90
21001;DHT22;10658;50.920;12.238;2024-01-15T14:29:36;1.60;99.90
21001;DHT22;10658;50.920;12.238;2024-01-15T14:33:37;1.60;99.90
21001;DHT22;10658;50.920;12.238;2024-01-15T14:37:38;1.60;99.90
21001;DHT22;10658;50.920;12.238;2024-01-15T14:41:39;1.60;99.90
21001;DHT22;10658;50.920;12.238;2024-01-15T14:45:40;1.60;99.90
21001;DHT22;10658;50.920;12.238;2024-01-15T14:49:42;1.60;99.90
21001;DHT22;10658;50.920;12.238;2024-01-15T14:53:42;1.60;99.90
21001;DHT22;10658;50.920;12.238;2024-01-15T14:57:44;1.60;99.90
21001;DHT22;10658;50.920;12.238;2024-01-15T15:01:45;1.60;99.90
21001;DHT22;10658;50.920;12.238;2024-01-15T15:05:46;1.60;99.90
21001;DHT22;10658;50.920;12.238;2024-01-15T15:09:46;1.50;99.90
21001;DHT22;10658;50.920;12.238;2024-01-15T15:13:51;1.40;99.90
21001;DHT22;10658;50.920;12.238;2024-01-15T15:17:52;1.30;99.90
21001;DHT22;10658;50.920;12.238;2024-01-15T15:21:53;1.20;99.90
21001;DHT22;10658;50.920;12.238;2024-01-15T15:25:54;1.20;99.90
21001;DHT22;10658;50.920;12.238;2024-01-15T15:29:55;1.20;99.90
21001;DHT22;10658;50.920;12.238;2024-01-15T15:33:55;1.20;99.90
21001;DHT22;10658;50.920;12.238;2024-01-15T15:37:56;1.20;99.90
21001;DHT22;10658;50.920;12.238;2024-01-15T15:41:57;1.10;99.90
21001;DHT22;10658;50.920;12.238;2024-01-15T15:45:58;1.10;99.90
21001;DHT22;10658;50.920;12.238;2024-01-15T15:49:59;1.10;99.90
21001;DHT22;10658;50.920;12.238;2024-01-15T15:53:59;1.10;99.90
21001;DHT22;10658;50.920;12.238;2024-01-15T15:58:02;1.10;99.90
21001;DHT22;10658;50.920;12.238;2024-01-15T16:02:04;1.10;99.90
21001;DHT22;10658;50.920;12.238;2024-01-15T16:06:04;1.10;99.90
21001;DHT22;10658;50.920;12.238;2024-01-15T16:10:06;1.10;99.90
21001;DHT22;10658;50.920;12.238;2024-01-15T16:14:07;1.10;99.90
21001;DHT22;10658;50.920;12.238;2024-01-15T16:18:08;1.20;99.90
21001;DHT22;10658;50.920;12.238;2024-01-15T16:22:09;1.20;99.90
21001;DHT22;10658;50.920;12.238;2024-01-15T16:26:13;1.20;99.90
21001;DHT22;10658;50.920;12.238;2024-01-15T16:30:13;1.20;99.90
21001;DHT22;10658;50.920;12.238;2024-01-15T16:34:14;1.10;99.90
21001;DHT22;10658;50.920;12.238;2024-01-15T16:38:15;1.10;99.90
21001;DHT22;10658;50.920;12.238;2024-01-15T16:42:16;1.10;99.90
21001;DHT22;10658;50.920;12.238;2024-01-15T16:46:16;1.20;99.90
21001;DHT22;10658;50.920;12.238;2024-01-15T16:50:17;1.30;99.90
21001;DHT22;10658;50.920;12.238;2024-01-15T16:54:19;1.40;99.90
21001;DHT22;10658;50.920;12.238;2024-01-15T16:58:20;1.30;99.90
21001;DHT22;10658;50.920;12.238;2024-01-15T17:02:21;1.30;99.90
21001;DHT22;10658;50.920;12.238;2024-01-15T17:06:22;1.40;99.90
21001;DHT22;10658;50.920;12.238;2024-01-15T17:10:22;1.30;99.90
21001;DHT22;10658;50.920;12.238;2024-01-15T17:14:23;1.40;99.90
21001;DHT22;10658;50.920;12.238;2024-01-15T17:18:24;1.40;99.90
21001;DHT22;10658;50.920;12.238;2024-01-15T17:22:24;1.40;99.90
21001;DHT22;10658;50.920;12.238;2024-01-15T17:26:25;1.40;99.90
21001;DHT22;10658;50.920;12.238;2024-01-15T17:30:26;1.40;99.90
21001;DHT22;10658;50.920;12.238;2024-01-15T17:34:27;1.40;99.90
21001;DHT22;10658;50.920;12.238;2024-01-15T17:38:28;1.30;99.90
21001;DHT22;10658;50.920;12.238;2024-01-15T17:42:28;1.40;99.90
21001;DHT22;10658;50.920;12.238;2024-01-15T17:46:29;1.30;99.90
21001;DHT22;10658;50.920;12.238;2024-01-15T17:50:30;1.30;99.90
21001;DHT22;10658;50.920;12.238;2024-01-15T17:54:32;1.30;99.90
21001;DHT22;10658;50.920;12.238;2024-01-15T17:58:33;1.30;99.90
21001;DHT22;10658;50.920;12.238;2024-01-15T18:02:34;1.30;99.90
21001;DHT22;10658;50.920;12.238;2024-01-15T18:06:35;1.30;99.90
21001;DHT22;10658;50.920;12.238;2024-01-15T18:10:36;1.20;99.90
21001;DHT22;10658;50.920;12.238;2024-01-15T18:14:37;1.20;99.90
21001;DHT22;10658;50.920;12.238;2024-01-15T18:18:39;1.20;99.90
21001;DHT22;10658;50.920;12.238;2024-01-15T18:22:40;1.20;99.90
21001;DHT22;10658;50.920;12.238;2024-01-15T18:26:40;1.20;99.90
21001;DHT22;10658;50.920;12.238;2024-01-15T18:30:42;1.20;99.90
21001;DHT22;10658;50.920;12.238;2024-01-15T18:34:43;1.20;99.90
21001;DHT22;10658;50.920;12.238;2024-01-15T18:38:43;1.10;99.90
21001;DHT22;10658;50.920;12.238;2024-01-15T18:42:44;1.20;99.90
21001;DHT22;10658;50.920;12.238;2024-01-15T18:46:45;1.10;99.90
21001;DHT22;10658;50.920;12.238;2024-01-15T18:50:46;1.20;99.90
21001;DHT22;10658;50.920;12.238;2024-01-15T18:54:48;1.20;99.90
21001;DHT22;10658;50.920;12.238;2024-01-15T18:58:49;1.20;99.90
21001;DHT22;10658;50.920;12.238;2024-01-15T19:02:50;1.20;99.90
21001;DHT22;10658;50.920;12.238;2024-01-15T19:06:52;1.20;99.90
21001;DHT22;10658;50.920;12.238;2024-01-15T19:10:53;1.20;99.90
21001;DHT22;10658;50.920;12.238;2024-01-15T19:14:55;1.20;99.90
21001;DHT22;10658;50.920;12.238;2024-01-15T19:18:56;1.00;99.90
21001;DHT22;10658;50.920;12.238;2024-01-15T19:22:57;0.90;99.90
21001;DHT22;10658;50.920;12.238;2024-01-15T19:26:58;0.80;99.90
21001;DHT22;10658;50.920;12.238;2024-01-15T19:30:59;0.80;99.90
21001;DHT22;10658;50.920;12.238;2024-01-15T19:35:02;0.60;99.90
21001;DHT22;10658;50.920;12.238;2024-01-15T19:39:03;0.50;99.90
21001;DHT22;10658;50.920;12.238;2024-01-15T19:43:04;0.40;99.90
21001;DHT22;10658;50.920;12.238;2024-01-15T19:47:04;0.30;99.90
21001;DHT22;10658;50.920;12.238;2024-01-15T19:51:05;0.30;99.90
21001;DHT22;10658;50.920;12.238;2024-01-15T19:55:06;0.20;99.90
21001;DHT22;10658;50.920;12.238;2024-01-15T19:59:07;0.30;99.90
21001;DHT22;10658;50.920;12.238;2024-01-15T20:03:08;0.30;99.90
21001;DHT22;10658;50.920;12.238;2024-01-15T20:07:09;0.30;99.90
21001;DHT22;10658;50.920;12.238;2024-01-15T20:11:10;0.40;99.90
21001;DHT22;10658;50.920;12.238;2024-01-15T20:15:11;0.50;99.90
21001;DHT22;10658;50.920;12.238;2024-01-15T20:19:12;0.50;99.90
21001;DHT22;10658;50.920;12.238;2024-01-15T20:23:13;0.60;99.90
21001;DHT22;10658;50.920;12.238;2024-01-15T20:27:14;0.70;99.90
21001;DHT22;10658;50.920;12.238;2024-01-15T20:31:16;0.70;99.90
21001;DHT22;10658;50.920;12.238;2024-01-15T20:35:17;0.90;99.90
21001;DHT22;10658;50.920;12.238;2024-01-15T20:39:18;1.00;99.90
21001;DHT22;10658;50.920;12.238;2024-01-15T20:43:21;1.00;99.90
21001;DHT22;10658;50.920;12.238;2024-01-15T20:47:29;1.00;99.90
21001;DHT22;10658;50.920;12.238;2024-01-15T20:51:31;1.00;99.90
21001;DHT22;10658;50.920;12.238;2024-01-15T20:55:33;1.10;99.90
21001;DHT22;10658;50.920;12.238;2024-01-15T20:59:34;1.10;99.90
21001;DHT22;10658;50.920;12.238;2024-01-15T21:03:35;1.10;99.90
21001;DHT22;10658;50.920;12.238;2024-01-15T21:07:36;1.10;99.90
21001;DHT22;10658;50.920;12.238;2024-01-15T21:11:37;1.10;99.90
21001;DHT22;10658;50.920;12.238;2024-01-15T21:15:38;1.10;99.90
21001;DHT22;10658;50.920;12.238;2024-01-15T21:19:39;1.10;99.90
21001;DHT22;10658;50.920;12.238;2024-01-15T21:23:40;1.10;99.90
21001;DHT22;10658;50.920;12.238;2024-01-15T21:27:40;1.10;99.90
21001;DHT22;10658;50.920;12.238;2024-01-15T21:31:41;1.10;99.90
21001;DHT22;10658;50.920;12.238;2024-01-15T21:35:42;1.10;99.90
21001;DHT22;10658;50.920;12.238;2024-01-15T21:39:43;1.10;99.90
21001;DHT22;10658;50.920;12.238;2024-01-15T21:43:44;1.00;99.90
21001;DHT22;10658;50.920;12.238;2024-01-15T21:47:45;1.00;99.90
21001;DHT22;10658;50.920;12.238;2024-01-15T21:51:46;0.90;99.90
21001;DHT22;10658;50.920;12.238;2024-01-15T21:55:47;0.90;99.90
21001;DHT22;10658;50.920;12.238;2024-01-15T21:59:48;0.90;99.90
21001;DHT22;10658;50.920;12.238;2024-01-15T22:03:48;0.90;99.90
21001;DHT22;10658;50.920;12.238;2024-01-15T22:07:49;1.00;99.90
21001;DHT22;10658;50.920;12.238;2024-01-15T22:11:50;1.00;99.90
21001;DHT22;10658;50.920;12.238;2024-01-15T22:15:50;1.00;99.90
21001;DHT22;10658;50.920;12.238;2024-01-15T22:19:51;1.00;99.90
21001;DHT22;10658;50.920;12.238;2024-01-15T22:23:55;1.00;99.90
21001;DHT22;10658;50.920;12.238;2024-01-15T22:27:55;0.90;99.90
21001;DHT22;10658;50.920;12.238;2024-01-15T22:31:56;0.90;99.90
21001;DHT22;10658;50.920;12.238;2024-01-15T22:35:57;0.90;99.90
21001;DHT22;10658;50.920;12.238;2024-01-15T22:39:58;0.90;99.90
21001;DHT22;10658;50.920;12.238;2024-01-15T22:43:59;0.90;99.90
21001;DHT22;10658;50.920;12.238;2024-01-15T22:47:59;0.80;99.90
21001;DHT22;10658;50.920;12.238;2024-01-15T22:52:00;0.90;99.90
21001;DHT22;10658;50.920;12.238;2024-01-15T22:56:01;0.90;99.90
21001;DHT22;10658;50.920;12.238;2024-01-15T23:00:04;0.90;99.90
21001;DHT22;10658;50.920;12.238;2024-01-15T23:04:13;0.80;99.90
21001;DHT22;10658;50.920;12.238;2024-01-15T23:08:14;0.80;99.90
21001;DHT22;10658;50.920;12.238;2024-01-15T23:12:15;0.80;99.90
21001;DHT22;10658;50.920;12.238;2024-01-15T23:16:16;0.60;99.90
21001;DHT22;10658;50.920;12.238;2024-01-15T23:20:16;0.80;99.90
21001;DHT22;10658;50.920;12.238;2024-01-15T23:24:17;0.80;99.90
21001;DHT22;10658;50.920;12.238;2024-01-15T23:28:18;0.90;99.90
21001;DHT22;10658;50.920;12.238;2024-01-15T23:32:19;0.90;99.90
21001;DHT22;10658;50.920;12.238;2024-01-15T23:36:19;0.90;99.90
21001;DHT22;10658;50.920;12.238;2024-01-15T23:40:20;0.90;99.90
21001;DHT22;10658;50.920;12.238;2024-01-15T23:44:21;0.90;99.90
21001;DHT22;10658;50.920;12.238;2024-01-15T23:48:22;0.90;99.90
21001;DHT22;10658;50.920;12.238;2024-01-15T23:52:23;0.90;99.90
21001;DHT22;10658;50.920;12.238;2024-01-15T23:56:23;0.90;99.90
